sensor_id;sensor_type;location;lat;lon;timestamp;temperature;humidity
15105;DHT22;7653;48.994;9.212;2023-07-16T00:01:59;20.00;99.90
15105;DHT22;7653;48.994;9.212;2023-07-16T00:04:25;19.90;99.90
15105;DHT22;7653;48.994;9.212;2023-07-16T00:06:51;19.90;99.10
15105;DHT22;7653;48.994;9.212;2023-07-16T00:09:16;19.90;99.50
15105;DHT22;7653;48.994;9.212;2023-07-16T00:11:42;19.90;99.90
15105;DHT22;7653;48.994;9.212;2023-07-16T00:14:09;19.80;98.50
15105;DHT22;7653;48.994;9.212;2023-07-16T00:16:35;19.80;98.30
15105;DHT22;7653;48.994;9.212;2023-07-16T00:19:00;19.80;98.40
15105;DHT22;7653;48.994;9.212;2023-07-16T00:21:26;19.80;98.30
15105;DHT22;7653;48.994;9.212;2023-07-16T00:23:51;19.80;98.80
15105;DHT22;7653;48.994;9.212;2023-07-16T00:26:17;19.70;98.30
15105;DHT22;7653;48.994;9.212;2023-07-16T00:28:43;19.70;98.50
15105;DHT22;7653;48.994;9.212;2023-07-16T00:31:09;19.70;97.80
15105;DHT22;7653;48.994;9.212;2023-07-16T00:33:35;19.80;99.30
15105;DHT22;7653;48.994;9.212;2023-07-16T00:36:01;19.80;99.60
15105;DHT22;7653;48.994;9.212;2023-07-16T00:38:27;19.80;99.90
15105;DHT22;7653;48.994;9.212;2023-07-16T00:40:52;19.60;99.20
15105;DHT22;7653;48.994;9.212;2023-07-16T00:43:18;19.60;99.90
15105;DHT22;7653;48.994;9.212;2023-07-16T00:45:45;19.80;99.90
15105;DHT22;7653;48.994;9.212;2023-07-16T00:48:12;19.80;99.90
15105;DHT22;7653;48.994;9.212;2023-07-16T00:50:39;19.80;99.90
15105;DHT22;7653;48.994;9.212;2023-07-16T00:53:06;19.90;99.90
15105;DHT22;7653;48.994;9.212;2023-07-16T00:55:32;19.90;99.90
15105;DHT22;7653;48.994;9.212;2023-07-16T00:58:01;19.90;99.90
15105;DHT22;7653;48.994;9.212;2023-07-16T01:00:32;19.80;99.90
15105;DHT22;7653;48.994;9.212;2023-07-16T01:02:58;19.70;99.90
15105;DHT22;7653;48.994;9.212;2023-07-16T01:05:24;19.70;99.90
15105;DHT22;7653;48.994;9.212;2023-07-16T01:07:58;19.60;99.70
15105;DHT22;7653;48.994;9.212;2023-07-16T01:10:26;19.60;99.50
15105;DHT22;7653;48.994;9.212;2023-07-16T01:12:55;19.50;97.10
15105;DHT22;7653;48.994;9.212;2023-07-16T01:15:21;19.50;97.80
15105;DHT22;7653;48.994;9.212;2023-07-16T01:17:47;19.40;97.10
15105;DHT22;7653;48.994;9.212;2023-07-16T01:20:12;19.30;98.30
15105;DHT22;7653;48.994;9.212;2023-07-16T01:31:30;19.20;97.90
15105;DHT22;7653;48.994;9.212;2023-07-16T01:33:57;19.20;97.00
15105;DHT22;7653;48.994;9.212;2023-07-16T01:36:24;19.20;97.30
15105;DHT22;7653;48.994;9.212;2023-07-16T01:38:50;19.20;97.80
15105;DHT22;7653;48.994;9.212;2023-07-16T01:41:16;19.30;97.40
15105;DHT22;7653;48.994;9.212;2023-07-16T01:43:41;19.30;96.40
15105;DHT22;7653;48.994;9.212;2023-07-16T01:46:07;19.30;96.10
15105;DHT22;7653;48.994;9.212;2023-07-16T01:48:35;19.30;96.90
15105;DHT22;7653;48.994;9.212;2023-07-16T01:51:02;19.30;95.70
15105;DHT22;7653;48.994;9.212;2023-07-16T01:53:28;19.30;95.90
15105;DHT22;7653;48.994;9.212;2023-07-16T01:55:55;19.30;95.10
15105;DHT22;7653;48.994;9.212;2023-07-16T01:58:21;19.30;95.40
15105;DHT22;7653;48.994;9.212;2023-07-16T02:00:49;19.30;95.10
15105;DHT22;7653;48.994;9.212;2023-07-16T02:03:15;19.40;93.10
15105;DHT22;7653;48.994;9.212;2023-07-16T02:05:40;19.30;93.80
15105;DHT22;7653;48.994;9.212;2023-07-16T02:08:06;19.30;93.00
15105;DHT22;7653;48.994;9.212;2023-07-16T02:10:32;19.40;93.70
15105;DHT22;7653;48.994;9.212;2023-07-16T02:12:57;19.40;93.90
15105;DHT22;7653;48.994;9.212;2023-07-16T02:15:23;19.40;94.80
15105;DHT22;7653;48.994;9.212;2023-07-16T02:17:49;19.40;94.80
15105;DHT22;7653;48.994;9.212;2023-07-16T02:20:14;19.40;94.80
15105;DHT22;7653;48.994;9.212;2023-07-16T02:22:40;19.40;94.40
15105;DHT22;7653;48.994;9.212;2023-07-16T02:25:06;19.40;95.00
15105;DHT22;7653;48.994;9.212;2023-07-16T02:27:31;19.40;95.90
15105;DHT22;7653;48.994;9.212;2023-07-16T02:29:57;19.40;96.20
15105;DHT22;7653;48.994;9.212;2023-07-16T02:32:23;19.30;95.90
15105;DHT22;7653;48.994;9.212;2023-07-16T02:34:49;19.20;95.60
15105;DHT22;7653;48.994;9.212;2023-07-16T02:37:15;19.20;95.10
15105;DHT22;7653;48.994;9.212;2023-07-16T02:39:42;19.20;94.70
15105;DHT22;7653;48.994;9.212;2023-07-16T02:42:08;19.20;94.60
15105;DHT22;7653;48.994;9.212;2023-07-16T02:44:34;19.20;96.00
15105;DHT22;7653;48.994;9.212;2023-07-16T02:47:04;19.10;94.90
15105;DHT22;7653;48.994;9.212;2023-07-16T02:49:29;19.00;93.80
15105;DHT22;7653;48.994;9.212;2023-07-16T02:51:55;19.10;92.10
15105;DHT22;7653;48.994;9.212;2023-07-16T02:54:20;19.00;93.80
15105;DHT22;7653;48.994;9.212;2023-07-16T02:56:47;19.00;91.10
15105;DHT22;7653;48.994;9.212;2023-07-16T02:59:12;18.90;92.90
15105;DHT22;7653;48.994;9.212;2023-07-16T03:01:38;18.80;92.80
15105;DHT22;7653;48.994;9.212;2023-07-16T03:04:03;18.90;80.00
15105;DHT22;7653;48.994;9.212;2023-07-16T03:06:29;19.00;80.60
15105;DHT22;7653;48.994;9.212;2023-07-16T03:08:55;19.00;78.50
15105;DHT22;7653;48.994;9.212;2023-07-16T03:11:20;19.00;82.20
15105;DHT22;7653;48.994;9.212;2023-07-16T03:13:46;19.00;82.70
15105;DHT22;7653;48.994;9.212;2023-07-16T03:16:12;19.00;81.30
15105;DHT22;7653;48.994;9.212;2023-07-16T03:18:37;19.00;86.10
15105;DHT22;7653;48.994;9.212;2023-07-16T03:21:03;19.00;88.50
15105;DHT22;7653;48.994;9.212;2023-07-16T03:23:29;19.00;91.30
15105;DHT22;7653;48.994;9.212;2023-07-16T03:25:54;19.00;92.00
15105;DHT22;7653;48.994;9.212;2023-07-16T03:28:20;19.00;90.20
15105;DHT22;7653;48.994;9.212;2023-07-16T03:30:50;19.00;87.40
15105;DHT22;7653;48.994;9.212;2023-07-16T03:33:16;18.90;87.00
15105;DHT22;7653;48.994;9.212;2023-07-16T03:35:45;18.80;79.00
15105;DHT22;7653;48.994;9.212;2023-07-16T03:38:12;18.90;82.60
15105;DHT22;7653;48.994;9.212;2023-07-16T03:40:38;18.80;82.60
15105;DHT22;7653;48.994;9.212;2023-07-16T03:43:04;18.80;82.20
15105;DHT22;7653;48.994;9.212;2023-07-16T03:45:29;18.90;84.50
15105;DHT22;7653;48.994;9.212;2023-07-16T03:47:55;18.80;87.20
15105;DHT22;7653;48.994;9.212;2023-07-16T03:50:21;18.70;82.80
15105;DHT22;7653;48.994;9.212;2023-07-16T03:52:47;18.70;85.80
15105;DHT22;7653;48.994;9.212;2023-07-16T03:55:12;18.70;82.20
15105;DHT22;7653;48.994;9.212;2023-07-16T03:57:38;18.80;84.50
15105;DHT22;7653;48.994;9.212;2023-07-16T04:00:05;18.70;81.90
15105;DHT22;7653;48.994;9.212;2023-07-16T04:02:34;18.70;84.10
15105;DHT22;7653;48.994;9.212;2023-07-16T04:05:00;18.50;87.40
15105;DHT22;7653;48.994;9.212;2023-07-16T04:07:26;18.40;89.40
15105;DHT22;7653;48.994;9.212;2023-07-16T04:09:52;18.30;87.50
15105;DHT22;7653;48.994;9.212;2023-07-16T04:12:17;18.30;85.00
15105;DHT22;7653;48.994;9.212;2023-07-16T04:14:43;18.30;82.30
15105;DHT22;7653;48.994;9.212;2023-07-16T04:17:09;18.30;77.80
15105;DHT22;7653;48.994;9.212;2023-07-16T04:19:34;18.40;79.40
15105;DHT22;7653;48.994;9.212;2023-07-16T04:22:00;18.30;81.70
15105;DHT22;7653;48.994;9.212;2023-07-16T04:24:26;18.40;80.30
15105;DHT22;7653;48.994;9.212;2023-07-16T04:26:54;18.40;77.40
15105;DHT22;7653;48.994;9.212;2023-07-16T04:29:20;18.40;74.30
15105;DHT22;7653;48.994;9.212;2023-07-16T04:31:46;18.50;75.50
15105;DHT22;7653;48.994;9.212;2023-07-16T04:34:11;18.50;77.20
15105;DHT22;7653;48.994;9.212;2023-07-16T04:36:38;18.50;80.60
15105;DHT22;7653;48.994;9.212;2023-07-16T04:39:04;18.50;76.70
15105;DHT22;7653;48.994;9.212;2023-07-16T04:41:30;18.40;80.10
15105;DHT22;7653;48.994;9.212;2023-07-16T04:43:56;18.40;79.70
15105;DHT22;7653;48.994;9.212;2023-07-16T04:46:22;18.40;71.00
15105;DHT22;7653;48.994;9.212;2023-07-16T04:48:47;18.40;70.50
15105;DHT22;7653;48.994;9.212;2023-07-16T04:51:13;18.40;75.00
15105;DHT22;7653;48.994;9.212;2023-07-16T04:53:39;18.50;73.40
15105;DHT22;7653;48.994;9.212;2023-07-16T04:56:04;18.60;75.20
15105;DHT22;7653;48.994;9.212;2023-07-16T04:58:35;18.60;76.30
15105;DHT22;7653;48.994;9.212;2023-07-16T05:01:01;18.60;73.60
15105;DHT22;7653;48.994;9.212;2023-07-16T05:03:26;18.60;73.10
15105;DHT22;7653;48.994;9.212;2023-07-16T05:05:52;18.60;72.60
15105;DHT22;7653;48.994;9.212;2023-07-16T05:08:18;18.60;74.00
15105;DHT22;7653;48.994;9.212;2023-07-16T05:10:43;18.70;72.00
15105;DHT22;7653;48.994;9.212;2023-07-16T05:13:09;18.70;70.30
15105;DHT22;7653;48.994;9.212;2023-07-16T05:15:34;18.60;71.70
15105;DHT22;7653;48.994;9.212;2023-07-16T05:18:00;18.70;70.70
15105;DHT22;7653;48.994;9.212;2023-07-16T05:20:26;18.60;77.60
15105;DHT22;7653;48.994;9.212;2023-07-16T05:22:51;18.70;72.30
15105;DHT22;7653;48.994;9.212;2023-07-16T05:25:17;18.70;68.10
15105;DHT22;7653;48.994;9.212;2023-07-16T05:27:43;18.80;69.70
15105;DHT22;7653;48.994;9.212;2023-07-16T05:30:09;18.80;64.60
15105;DHT22;7653;48.994;9.212;2023-07-16T05:32:35;18.90;68.30
15105;DHT22;7653;48.994;9.212;2023-07-16T05:35:01;19.00;73.30
15105;DHT22;7653;48.994;9.212;2023-07-16T05:37:27;19.10;72.80
15105;DHT22;7653;48.994;9.212;2023-07-16T05:39:52;19.20;72.50
15105;DHT22;7653;48.994;9.212;2023-07-16T05:42:18;19.30;72.10
15105;DHT22;7653;48.994;9.212;2023-07-16T05:44:46;19.30;67.60
15105;DHT22;7653;48.994;9.212;2023-07-16T05:47:12;19.30;62.60
15105;DHT22;7653;48.994;9.212;2023-07-16T05:49:38;19.30;68.60
15105;DHT22;7653;48.994;9.212;2023-07-16T05:52:04;19.20;65.90
15105;DHT22;7653;48.994;9.212;2023-07-16T05:54:30;19.10;60.20
15105;DHT22;7653;48.994;9.212;2023-07-16T05:56:57;19.20;59.60
15105;DHT22;7653;48.994;9.212;2023-07-16T05:59:23;19.20;58.20
15105;DHT22;7653;48.994;9.212;2023-07-16T06:01:48;19.30;58.90
15105;DHT22;7653;48.994;9.212;2023-07-16T06:04:14;19.40;58.80
15105;DHT22;7653;48.994;9.212;2023-07-16T06:06:40;19.40;54.50
15105;DHT22;7653;48.994;9.212;2023-07-16T06:09:05;19.60;63.50
15105;DHT22;7653;48.994;9.212;2023-07-16T06:11:31;19.60;57.00
15105;DHT22;7653;48.994;9.212;2023-07-16T06:13:56;19.70;58.60
15105;DHT22;7653;48.994;9.212;2023-07-16T06:16:22;19.90;54.80
15105;DHT22;7653;48.994;9.212;2023-07-16T06:18:48;19.90;52.80
15105;DHT22;7653;48.994;9.212;2023-07-16T06:21:14;19.80;54.70
15105;DHT22;7653;48.994;9.212;2023-07-16T06:23:40;19.70;49.40
15105;DHT22;7653;48.994;9.212;2023-07-16T06:26:06;19.60;52.00
15105;DHT22;7653;48.994;9.212;2023-07-16T06:28:32;19.60;51.70
15105;DHT22;7653;48.994;9.212;2023-07-16T06:30:57;19.60;51.20
15105;DHT22;7653;48.994;9.212;2023-07-16T06:33:23;19.70;54.00
15105;DHT22;7653;48.994;9.212;2023-07-16T06:35:50;19.80;51.60
15105;DHT22;7653;48.994;9.212;2023-07-16T06:38:16;19.80;54.40
15105;DHT22;7653;48.994;9.212;2023-07-16T06:40:49;19.80;49.50
15105;DHT22;7653;48.994;9.212;2023-07-16T06:43:15;19.70;47.20
15105;DHT22;7653;48.994;9.212;2023-07-16T06:45:41;19.80;47.60
15105;DHT22;7653;48.994;9.212;2023-07-16T06:48:07;19.80;48.50
15105;DHT22;7653;48.994;9.212;2023-07-16T06:50:33;19.80;46.10
15105;DHT22;7653;48.994;9.212;2023-07-16T06:52:58;19.90;51.30
15105;DHT22;7653;48.994;9.212;2023-07-16T06:55:24;19.90;47.10
15105;DHT22;7653;48.994;9.212;2023-07-16T06:57:49;20.00;44.70
15105;DHT22;7653;48.994;9.212;2023-07-16T07:00:15;20.00;49.70
15105;DHT22;7653;48.994;9.212;2023-07-16T07:02:41;20.20;48.80
15105;DHT22;7653;48.994;9.212;2023-07-16T07:05:07;20.20;46.20
15105;DHT22;7653;48.994;9.212;2023-07-16T07:07:33;20.30;45.00
15105;DHT22;7653;48.994;9.212;2023-07-16T07:09:59;20.20;46.10
15105;DHT22;7653;48.994;9.212;2023-07-16T07:12:24;20.20;44.90
15105;DHT22;7653;48.994;9.212;2023-07-16T07:14:50;20.00;44.20
15105;DHT22;7653;48.994;9.212;2023-07-16T07:17:15;19.90;44.00
15105;DHT22;7653;48.994;9.212;2023-07-16T07:19:42;20.00;49.70
15105;DHT22;7653;48.994;9.212;2023-07-16T07:22:08;20.30;46.50
15105;DHT22;7653;48.994;9.212;2023-07-16T07:24:33;20.40;43.60
15105;DHT22;7653;48.994;9.212;2023-07-16T07:26:59;20.20;39.80
15105;DHT22;7653;48.994;9.212;2023-07-16T07:29:25;20.30;42.80
15105;DHT22;7653;48.994;9.212;2023-07-16T07:31:52;20.30;41.50
15105;DHT22;7653;48.994;9.212;2023-07-16T07:34:17;20.10;41.10
15105;DHT22;7653;48.994;9.212;2023-07-16T07:36:43;19.90;43.00
15105;DHT22;7653;48.994;9.212;2023-07-16T07:39:09;20.20;43.10
15105;DHT22;7653;48.994;9.212;2023-07-16T07:41:34;20.20;39.80
15105;DHT22;7653;48.994;9.212;2023-07-16T07:44:00;20.30;40.70
15105;DHT22;7653;48.994;9.212;2023-07-16T07:46:26;20.60;39.50
15105;DHT22;7653;48.994;9.212;2023-07-16T07:48:51;20.20;39.70
15105;DHT22;7653;48.994;9.212;2023-07-16T07:51:17;20.00;39.60
15105;DHT22;7653;48.994;9.212;2023-07-16T07:53:42;20.30;35.70
15105;DHT22;7653;48.994;9.212;2023-07-16T07:56:08;20.40;36.10
15105;DHT22;7653;48.994;9.212;2023-07-16T07:58:34;20.40;35.10
15105;DHT22;7653;48.994;9.212;2023-07-16T08:01:06;20.50;35.70
15105;DHT22;7653;48.994;9.212;2023-07-16T08:03:33;20.50;35.90
15105;DHT22;7653;48.994;9.212;2023-07-16T08:06:00;20.80;35.20
15105;DHT22;7653;48.994;9.212;2023-07-16T08:08:25;20.90;33.60
15105;DHT22;7653;48.994;9.212;2023-07-16T08:10:51;20.90;32.20
15105;DHT22;7653;48.994;9.212;2023-07-16T08:13:16;20.70;34.30
15105;DHT22;7653;48.994;9.212;2023-07-16T08:15:42;20.80;32.10
15105;DHT22;7653;48.994;9.212;2023-07-16T08:18:08;21.00;32.90
15105;DHT22;7653;48.994;9.212;2023-07-16T08:20:36;21.20;31.60
15105;DHT22;7653;48.994;9.212;2023-07-16T08:23:01;21.40;32.10
15105;DHT22;7653;48.994;9.212;2023-07-16T08:25:27;21.20;30.30
15105;DHT22;7653;48.994;9.212;2023-07-16T08:27:53;20.90;32.50
15105;DHT22;7653;48.994;9.212;2023-07-16T08:30:19;20.90;33.10
15105;DHT22;7653;48.994;9.212;2023-07-16T08:32:44;21.40;32.50
15105;DHT22;7653;48.994;9.212;2023-07-16T08:35:10;21.70;30.70
15105;DHT22;7653;48.994;9.212;2023-07-16T08:37:42;21.40;31.00
15105;DHT22;7653;48.994;9.212;2023-07-16T08:40:08;21.40;31.10
15105;DHT22;7653;48.994;9.212;2023-07-16T08:42:37;21.10;33.00
15105;DHT22;7653;48.994;9.212;2023-07-16T08:45:06;21.20;32.10
15105;DHT22;7653;48.994;9.212;2023-07-16T08:47:34;21.30;31.50
15105;DHT22;7653;48.994;9.212;2023-07-16T08:50:00;21.20;31.40
15105;DHT22;7653;48.994;9.212;2023-07-16T08:52:27;21.00;30.10
15105;DHT22;7653;48.994;9.212;2023-07-16T08:54:53;21.10;30.00
15105;DHT22;7653;48.994;9.212;2023-07-16T08:57:20;21.20;30.60
15105;DHT22;7653;48.994;9.212;2023-07-16T08:59:51;21.30;28.70
15105;DHT22;7653;48.994;9.212;2023-07-16T09:02:20;21.50;28.30
15105;DHT22;7653;48.994;9.212;2023-07-16T09:04:47;21.60;28.10
15105;DHT22;7653;48.994;9.212;2023-07-16T09:07:13;21.70;26.60
15105;DHT22;7653;48.994;9.212;2023-07-16T09:09:39;21.60;28.30
15105;DHT22;7653;48.994;9.212;2023-07-16T09:12:05;22.00;26.80
15105;DHT22;7653;48.994;9.212;2023-07-16T09:14:31;22.40;26.90
15105;DHT22;7653;48.994;9.212;2023-07-16T09:16:56;22.30;27.00
15105;DHT22;7653;48.994;9.212;2023-07-16T09:19:22;22.10;26.50
15105;DHT22;7653;48.994;9.212;2023-07-16T09:21:48;21.90;25.60
15105;DHT22;7653;48.994;9.212;2023-07-16T09:24:14;21.80;26.70
15105;DHT22;7653;48.994;9.212;2023-07-16T09:26:48;21.80;26.60
15105;DHT22;7653;48.994;9.212;2023-07-16T09:29:14;22.00;28.20
15105;DHT22;7653;48.994;9.212;2023-07-16T09:31:54;22.30;26.60
15105;DHT22;7653;48.994;9.212;2023-07-16T09:34:20;22.60;26.00
15105;DHT22;7653;48.994;9.212;2023-07-16T09:36:49;22.50;25.20
15105;DHT22;7653;48.994;9.212;2023-07-16T09:39:18;22.60;25.30
15105;DHT22;7653;48.994;9.212;2023-07-16T09:41:48;22.70;26.00
15105;DHT22;7653;48.994;9.212;2023-07-16T09:44:15;22.70;25.80
15105;DHT22;7653;48.994;9.212;2023-07-16T09:46:41;22.70;24.90
15105;DHT22;7653;48.994;9.212;2023-07-16T09:49:07;22.80;25.70
15105;DHT22;7653;48.994;9.212;2023-07-16T09:51:35;22.60;25.70
15105;DHT22;7653;48.994;9.212;2023-07-16T09:54:02;22.70;23.90
15105;DHT22;7653;48.994;9.212;2023-07-16T09:59:07;22.90;22.60
15105;DHT22;7653;48.994;9.212;2023-07-16T10:01:37;22.40;22.90
15105;DHT22;7653;48.994;9.212;2023-07-16T10:04:16;22.60;23.10
15105;DHT22;7653;48.994;9.212;2023-07-16T10:06:52;22.70;24.60
15105;DHT22;7653;48.994;9.212;2023-07-16T10:09:50;22.50;23.70
15105;DHT22;7653;48.994;9.212;2023-07-16T10:12:20;22.50;22.90
15105;DHT22;7653;48.994;9.212;2023-07-16T10:14:51;22.50;23.00
15105;DHT22;7653;48.994;9.212;2023-07-16T10:22:13;22.60;23.00
15105;DHT22;7653;48.994;9.212;2023-07-16T10:24:39;22.50;24.70
15105;DHT22;7653;48.994;9.212;2023-07-16T10:27:05;22.70;24.10
15105;DHT22;7653;48.994;9.212;2023-07-16T10:29:30;23.00;23.30
15105;DHT22;7653;48.994;9.212;2023-07-16T10:31:58;22.90;23.20
15105;DHT22;7653;48.994;9.212;2023-07-16T10:34:24;22.80;24.30
15105;DHT22;7653;48.994;9.212;2023-07-16T10:36:51;22.90;23.10
15105;DHT22;7653;48.994;9.212;2023-07-16T10:39:17;22.70;23.80
15105;DHT22;7653;48.994;9.212;2023-07-16T10:41:42;22.40;23.20
15105;DHT22;7653;48.994;9.212;2023-07-16T10:44:09;22.60;23.80
15105;DHT22;7653;48.994;9.212;2023-07-16T10:46:36;22.00;25.40
15105;DHT22;7653;48.994;9.212;2023-07-16T10:49:02;22.50;23.70
15105;DHT22;7653;48.994;9.212;2023-07-16T10:51:28;22.70;23.10
15105;DHT22;7653;48.994;9.212;2023-07-16T10:53:57;23.00;23.30
15105;DHT22;7653;48.994;9.212;2023-07-16T10:56:23;22.60;23.80
15105;DHT22;7653;48.994;9.212;2023-07-16T10:58:49;23.00;23.30
15105;DHT22;7653;48.994;9.212;2023-07-16T11:01:17;23.60;21.50
15105;DHT22;7653;48.994;9.212;2023-07-16T11:03:43;24.00;19.80
15105;DHT22;7653;48.994;9.212;2023-07-16T11:06:09;24.40;20.00
15105;DHT22;7653;48.994;9.212;2023-07-16T11:08:35;24.70;20.90
15105;DHT22;7653;48.994;9.212;2023-07-16T11:11:00;25.10;19.70
15105;DHT22;7653;48.994;9.212;2023-07-16T11:13:31;25.60;17.90
15105;DHT22;7653;48.994;9.212;2023-07-16T11:16:06;25.30;16.30
15105;DHT22;7653;48.994;9.212;2023-07-16T11:18:32;25.30;20.50
15105;DHT22;7653;48.994;9.212;2023-07-16T11:20:59;25.10;19.20
15105;DHT22;7653;48.994;9.212;2023-07-16T11:23:25;25.20;16.90
15105;DHT22;7653;48.994;9.212;2023-07-16T11:25:52;24.50;17.90
15105;DHT22;7653;48.994;9.212;2023-07-16T11:28:18;24.20;18.60
15105;DHT22;7653;48.994;9.212;2023-07-16T11:30:43;24.00;19.80
15105;DHT22;7653;48.994;9.212;2023-07-16T11:33:13;24.20;18.60
15105;DHT22;7653;48.994;9.212;2023-07-16T11:35:39;24.50;19.80
15105;DHT22;7653;48.994;9.212;2023-07-16T11:38:07;24.70;17.60
15105;DHT22;7653;48.994;9.212;2023-07-16T11:40:36;24.80;17.50
15105;DHT22;7653;48.994;9.212;2023-07-16T11:43:10;24.60;17.30
15105;DHT22;7653;48.994;9.212;2023-07-16T11:45:37;24.20;18.80
15105;DHT22;7653;48.994;9.212;2023-07-16T11:48:04;24.70;18.20
15105;DHT22;7653;48.994;9.212;2023-07-16T11:50:30;25.30;17.00
15105;DHT22;7653;48.994;9.212;2023-07-16T11:52:58;25.30;15.90
15105;DHT22;7653;48.994;9.212;2023-07-16T11:55:24;25.50;16.40
15105;DHT22;7653;48.994;9.212;2023-07-16T11:57:50;25.40;16.30
15105;DHT22;7653;48.994;9.212;2023-07-16T12:00:16;24.80;16.70
15105;DHT22;7653;48.994;9.212;2023-07-16T12:02:43;25.00;16.10
15105;DHT22;7653;48.994;9.212;2023-07-16T12:05:08;25.10;15.60
15105;DHT22;7653;48.994;9.212;2023-07-16T12:07:38;25.10;17.60
15105;DHT22;7653;48.994;9.212;2023-07-16T12:10:05;25.40;15.50
15105;DHT22;7653;48.994;9.212;2023-07-16T12:12:32;25.90;17.10
15105;DHT22;7653;48.994;9.212;2023-07-16T12:14:58;26.00;15.00
15105;DHT22;7653;48.994;9.212;2023-07-16T12:17:24;25.30;15.60
15105;DHT22;7653;48.994;9.212;2023-07-16T12:19:50;25.20;16.50
15105;DHT22;7653;48.994;9.212;2023-07-16T12:22:17;25.60;14.70
15105;DHT22;7653;48.994;9.212;2023-07-16T12:24:44;25.40;15.50
15105;DHT22;7653;48.994;9.212;2023-07-16T12:27:09;25.90;14.40
15105;DHT22;7653;48.994;9.212;2023-07-16T12:29:35;26.30;14.00
15105;DHT22;7653;48.994;9.212;2023-07-16T12:32:01;26.50;14.40
15105;DHT22;7653;48.994;9.212;2023-07-16T12:34:26;26.80;14.70
15105;DHT22;7653;48.994;9.212;2023-07-16T12:36:52;27.00;12.80
15105;DHT22;7653;48.994;9.212;2023-07-16T12:39:19;27.20;11.20
15105;DHT22;7653;48.994;9.212;2023-07-16T12:41:45;27.20;12.10
15105;DHT22;7653;48.994;9.212;2023-07-16T12:44:12;26.70;11.40
15105;DHT22;7653;48.994;9.212;2023-07-16T12:46:38;26.20;13.30
15105;DHT22;7653;48.994;9.212;2023-07-16T12:49:03;26.00;14.80
15105;DHT22;7653;48.994;9.212;2023-07-16T12:51:29;26.00;12.30
15105;DHT22;7653;48.994;9.212;2023-07-16T12:53:55;25.90;12.80
15105;DHT22;7653;48.994;9.212;2023-07-16T12:56:20;25.00;14.40
15105;DHT22;7653;48.994;9.212;2023-07-16T12:58:47;25.40;15.00
15105;DHT22;7653;48.994;9.212;2023-07-16T13:01:13;26.20;13.30
15105;DHT22;7653;48.994;9.212;2023-07-16T13:03:39;25.60;13.40
15105;DHT22;7653;48.994;9.212;2023-07-16T13:06:04;25.40;14.80
15105;DHT22;7653;48.994;9.212;2023-07-16T13:08:30;26.10;13.80
15105;DHT22;7653;48.994;9.212;2023-07-16T13:10:56;26.70;11.40
15105;DHT22;7653;48.994;9.212;2023-07-16T13:13:22;26.70;11.80
15105;DHT22;7653;48.994;9.212;2023-07-16T13:15:48;27.00;10.40
15105;DHT22;7653;48.994;9.212;2023-07-16T13:18:14;27.30;9.80
15105;DHT22;7653;48.994;9.212;2023-07-16T13:20:39;26.40;10.70
15105;DHT22;7653;48.994;9.212;2023-07-16T13:23:05;25.30;13.80
15105;DHT22;7653;48.994;9.212;2023-07-16T13:25:31;26.20;13.90
15105;DHT22;7653;48.994;9.212;2023-07-16T13:27:57;26.60;11.30
15105;DHT22;7653;48.994;9.212;2023-07-16T13:30:22;27.20;10.70
15105;DHT22;7653;48.994;9.212;2023-07-16T13:32:48;27.00;12.20
15105;DHT22;7653;48.994;9.212;2023-07-16T13:35:15;26.60;12.20
15105;DHT22;7653;48.994;9.212;2023-07-16T13:37:41;25.00;14.00
15105;DHT22;7653;48.994;9.212;2023-07-16T13:40:07;25.60;14.20
15105;DHT22;7653;48.994;9.212;2023-07-16T13:42:34;25.70;14.50
15105;DHT22;7653;48.994;9.212;2023-07-16T13:44:59;26.40;13.00
15105;DHT22;7653;48.994;9.212;2023-07-16T13:47:25;26.00;12.40
15105;DHT22;7653;48.994;9.212;2023-07-16T13:49:51;26.70;13.10
15105;DHT22;7653;48.994;9.212;2023-07-16T13:52:16;27.20;13.00
15105;DHT22;7653;48.994;9.212;2023-07-16T13:54:42;28.10;13.00
15105;DHT22;7653;48.994;9.212;2023-07-16T13:57:08;28.20;13.40
15105;DHT22;7653;48.994;9.212;2023-07-16T13:59:34;29.20;13.60
15105;DHT22;7653;48.994;9.212;2023-07-16T14:02:01;30.20;8.10
15105;DHT22;7653;48.994;9.212;2023-07-16T14:04:28;29.60;5.20
15105;DHT22;7653;48.994;9.212;2023-07-16T14:06:54;28.90;6.40
15105;DHT22;7653;48.994;9.212;2023-07-16T14:09:20;28.40;7.60
15105;DHT22;7653;48.994;9.212;2023-07-16T14:11:46;28.30;9.10
15105;DHT22;7653;48.994;9.212;2023-07-16T14:14:14;28.70;6.60
15105;DHT22;7653;48.994;9.212;2023-07-16T14:16:40;28.70;7.50
15105;DHT22;7653;48.994;9.212;2023-07-16T14:19:06;26.70;10.00
15105;DHT22;7653;48.994;9.212;2023-07-16T14:21:31;26.80;12.00
15105;DHT22;7653;48.994;9.212;2023-07-16T14:23:57;27.00;10.40
15105;DHT22;7653;48.994;9.212;2023-07-16T14:26:23;27.20;10.10
15105;DHT22;7653;48.994;9.212;2023-07-16T14:28:49;27.20;10.00
15105;DHT22;7653;48.994;9.212;2023-07-16T14:31:14;27.50;9.10
15105;DHT22;7653;48.994;9.212;2023-07-16T14:33:40;28.00;8.80
15105;DHT22;7653;48.994;9.212;2023-07-16T14:36:06;28.40;7.40
15105;DHT22;7653;48.994;9.212;2023-07-16T14:38:32;27.40;9.10
15105;DHT22;7653;48.994;9.212;2023-07-16T14:40:57;27.40;9.90
15105;DHT22;7653;48.994;9.212;2023-07-16T14:43:23;27.30;9.20
15105;DHT22;7653;48.994;9.212;2023-07-16T14:45:49;26.60;10.50
15105;DHT22;7653;48.994;9.212;2023-07-16T14:48:14;25.80;11.30
15105;DHT22;7653;48.994;9.212;2023-07-16T14:50:40;26.30;10.80
15105;DHT22;7653;48.994;9.212;2023-07-16T14:53:06;26.50;10.50
15105;DHT22;7653;48.994;9.212;2023-07-16T14:55:32;26.70;10.60
15105;DHT22;7653;48.994;9.212;2023-07-16T14:57:57;25.90;10.90
15105;DHT22;7653;48.994;9.212;2023-07-16T15:00:23;25.90;11.20
15105;DHT22;7653;48.994;9.212;2023-07-16T15:02:49;25.70;10.90
15105;DHT22;7653;48.994;9.212;2023-07-16T15:05:15;25.80;9.80
15105;DHT22;7653;48.994;9.212;2023-07-16T15:07:40;25.70;10.70
15105;DHT22;7653;48.994;9.212;2023-07-16T15:10:07;25.10;10.90
15105;DHT22;7653;48.994;9.212;2023-07-16T15:12:33;24.80;11.60
15105;DHT22;7653;48.994;9.212;2023-07-16T15:14:59;25.00;11.70
15105;DHT22;7653;48.994;9.212;2023-07-16T15:17:24;25.60;10.80
15105;DHT22;7653;48.994;9.212;2023-07-16T15:19:51;25.80;9.60
15105;DHT22;7653;48.994;9.212;2023-07-16T15:22:17;25.20;11.00
15105;DHT22;7653;48.994;9.212;2023-07-16T15:24:49;25.60;10.10
15105;DHT22;7653;48.994;9.212;2023-07-16T15:27:15;25.10;10.80
15105;DHT22;7653;48.994;9.212;2023-07-16T15:29:41;25.20;11.50
15105;DHT22;7653;48.994;9.212;2023-07-16T15:32:07;25.80;11.50
15105;DHT22;7653;48.994;9.212;2023-07-16T15:34:33;26.00;8.30
15105;DHT22;7653;48.994;9.212;2023-07-16T15:36:58;26.20;9.20
15105;DHT22;7653;48.994;9.212;2023-07-16T15:39:24;27.30;6.80
15105;DHT22;7653;48.994;9.212;2023-07-16T15:41:50;27.50;6.80
15105;DHT22;7653;48.994;9.212;2023-07-16T15:44:16;27.30;6.10
15105;DHT22;7653;48.994;9.212;2023-07-16T15:46:42;26.00;7.80
15105;DHT22;7653;48.994;9.212;2023-07-16T15:49:07;26.10;7.50
15105;DHT22;7653;48.994;9.212;2023-07-16T15:51:33;26.30;8.00
15105;DHT22;7653;48.994;9.212;2023-07-16T15:54:01;26.20;7.90
15105;DHT22;7653;48.994;9.212;2023-07-16T15:56:27;27.40;6.10
15105;DHT22;7653;48.994;9.212;2023-07-16T15:58:53;27.70;5.30